createdAt,value
2023-04-20T00:00:35.317Z,10.58
2023-04-20T00:05:37.600Z,10.57
2023-04-20T00:10:39.069Z,10.96
2023-04-20T00:15:40.561Z,11.39
2023-04-20T00:20:42.199Z,10.99
2023-04-20T00:25:43.670Z,11.43
2023-04-20T00:30:45.170Z,10.96
2023-04-20T00:35:46.680Z,10.98
2023-04-20T00:40:53.004Z,10.61
2023-04-20T00:45:54.637Z,10.40
2023-04-20T00:50:56.109Z,10.57
2023-04-20T00:55:57.606Z,10.97
2023-04-20T01:00:59.099Z,11.55
2023-04-20T01:06:01.946Z,11.51
2023-04-20T01:11:03.431Z,10.74
2023-04-20T01:16:05.026Z,11.14
2023-04-20T01:21:06.534Z,10.76
2023-04-20T01:26:08.882Z,10.64
2023-04-20T01:31:10.611Z,9.66
2023-04-20T01:36:12.519Z,10.16
2023-04-20T01:41:13.980Z,10.59
2023-04-20T01:46:15.508Z,11.33
2023-04-20T01:51:17.008Z,11.29
2023-04-20T01:56:18.470Z,10.70
2023-04-20T02:01:20.021Z,10.27
2023-04-20T02:06:21.527Z,10.22
2023-04-20T02:11:22.999Z,10.93
2023-04-20T02:16:24.734Z,10.41
2023-04-20T02:21:26.318Z,11.05
2023-04-20T02:26:27.797Z,10.85
2023-04-20T02:31:29.302Z,10.52
2023-04-20T02:36:30.873Z,10.10
2023-04-20T02:41:32.589Z,10.49
2023-04-20T02:46:34.094Z,10.90
2023-04-20T02:51:35.661Z,10.16
2023-04-20T02:56:37.392Z,10.13
2023-04-20T03:01:39.011Z,10.23
2023-04-20T03:06:40.622Z,10.40
2023-04-20T03:11:42.092Z,10.13
2023-04-20T03:16:43.767Z,10.35
2023-04-20T03:21:45.406Z,9.80
2023-04-20T03:26:46.862Z,10.64
2023-04-20T03:31:48.417Z,10.36
2023-04-20T03:36:49.896Z,9.67
2023-04-20T03:41:51.374Z,9.85
2023-04-20T03:46:52.832Z,9.56
2023-04-20T03:51:54.321Z,10.11
2023-04-20T03:56:55.822Z,9.50
2023-04-20T04:01:58.334Z,9.34
2023-04-20T04:06:59.855Z,9.79
2023-04-20T04:12:01.392Z,9.61
2023-04-20T04:17:02.969Z,9.54
2023-04-20T04:22:04.484Z,9.09
2023-04-20T04:27:06.052Z,9.22
2023-04-20T04:32:08.080Z,8.88
2023-04-20T04:37:09.667Z,9.23
2023-04-20T04:42:11.253Z,9.33
2023-04-20T04:47:12.824Z,9.51
2023-04-20T04:52:14.629Z,9.28
2023-04-20T04:57:16.162Z,9.12
2023-04-20T05:02:17.770Z,9.01
2023-04-20T05:07:19.352Z,9.15
2023-04-20T05:12:20.820Z,8.93
2023-04-20T05:17:22.333Z,9.72
2023-04-20T05:22:23.819Z,8.98
2023-04-20T05:27:25.311Z,8.79
2023-04-20T05:32:26.787Z,9.31
2023-04-20T05:37:28.293Z,8.99
2023-04-20T05:42:29.897Z,9.34
2023-04-20T05:47:31.470Z,9.51
2023-04-20T05:52:33.393Z,9.32
2023-04-20T05:57:34.909Z,9.59
2023-04-20T06:02:36.928Z,9.17
2023-04-20T06:07:38.518Z,8.56
2023-04-20T06:12:40.076Z,9.01
2023-04-20T06:17:41.729Z,8.79
2023-04-20T06:22:44.483Z,8.68
2023-04-20T06:27:46.608Z,9.23
2023-04-20T06:32:48.116Z,9.00
2023-04-20T06:37:49.694Z,8.85
2023-04-20T06:42:51.149Z,8.81
2023-04-20T06:47:52.631Z,9.63
2023-04-20T06:52:54.074Z,9.53
2023-04-20T06:57:55.546Z,10.12
2023-04-20T07:02:57.275Z,9.85
2023-04-20T07:07:58.841Z,10.37
2023-04-20T07:13:00.487Z,10.52
2023-04-20T07:18:02.096Z,10.69
2023-04-20T07:23:03.801Z,10.63
2023-04-20T07:28:05.308Z,10.02
2023-04-20T07:33:07.357Z,10.76
2023-04-20T07:38:08.917Z,10.78
2023-04-20T07:43:10.432Z,11.46
2023-04-20T07:48:13.007Z,10.09
2023-04-20T07:53:14.538Z,10.80
2023-04-20T07:58:17.395Z,11.26
2023-04-20T08:03:19.211Z,11.56
2023-04-20T08:08:20.798Z,11.33
2023-04-20T08:13:22.250Z,11.76
2023-04-20T08:18:23.861Z,11.25
2023-04-20T08:23:27.989Z,11.41
2023-04-20T08:28:33.374Z,10.76
2023-04-20T08:33:35.104Z,11.02
2023-04-20T08:38:36.573Z,11.18
2023-04-20T08:43:38.041Z,11.80
2023-04-20T08:48:39.505Z,10.98
2023-04-20T08:53:40.974Z,11.67
2023-04-20T08:58:42.434Z,11.50
2023-04-20T09:03:44.450Z,11.60
2023-04-20T09:08:46.434Z,11.59
2023-04-20T09:14:06.453Z,11.96
2023-04-20T09:19:09.476Z,11.91
2023-04-20T09:24:11.415Z,12.77
2023-04-20T09:29:19.821Z,12.76
2023-04-20T09:34:21.451Z,12.74
2023-04-20T09:39:23.918Z,13.02
2023-04-20T09:44:25.383Z,13.02
2023-04-20T09:49:26.843Z,12.97
2023-04-20T09:54:29.592Z,13.06
2023-04-20T09:59:32.882Z,13.20
2023-04-20T10:04:34.711Z,13.35
2023-04-20T10:09:37.729Z,13.22
2023-04-20T10:14:39.054Z,13.06
2023-04-20T10:19:44.331Z,12.30
2023-04-20T10:24:46.095Z,12.77
2023-04-20T10:29:48.369Z,13.12
2023-04-20T10:35:03.412Z,13.08
2023-04-20T10:40:07.715Z,12.89
2023-04-20T10:45:10.791Z,12.82
2023-04-20T10:50:13.610Z,12.76
2023-04-20T10:55:19.751Z,12.76
2023-04-20T11:00:22.930Z,13.13
2023-04-20T11:05:27.897Z,12.78
2023-04-20T11:10:39.730Z,11.96
2023-04-20T11:15:41.206Z,12.44
2023-04-20T11:20:54.787Z,12.87
2023-04-20T11:25:56.621Z,12.47
2023-04-20T11:30:58.084Z,12.70
2023-04-20T11:35:59.853Z,11.78
2023-04-20T11:41:07.799Z,12.06
2023-04-20T11:46:16.886Z,12.35
2023-04-20T11:51:18.436Z,13.11
2023-04-20T11:56:19.930Z,13.74
2023-04-20T12:01:21.494Z,13.72
2023-04-20T12:06:22.993Z,13.23
2023-04-20T12:11:24.776Z,13.50
2023-04-20T12:16:26.468Z,12.87
2023-04-20T12:21:28.034Z,12.85
2023-04-20T12:26:37.990Z,12.22
2023-04-20T12:31:40.555Z,12.57
2023-04-20T12:36:42.171Z,12.25
2023-04-20T12:41:43.654Z,12.06
2023-04-20T12:46:45.451Z,12.08
2023-04-20T12:51:47.062Z,12.29
2023-04-20T12:56:48.527Z,12.12
2023-04-20T13:01:50.191Z,12.74
2023-04-20T13:06:51.891Z,12.96
2023-04-20T13:11:53.732Z,13.28
2023-04-20T13:16:55.584Z,13.81
2023-04-20T13:21:57.558Z,13.79
2023-04-20T13:26:59.036Z,13.69
2023-04-20T13:32:00.648Z,13.95
2023-04-20T13:37:02.259Z,14.07
2023-04-20T13:42:03.790Z,14.16
2023-04-20T13:47:05.359Z,14.53
2023-04-20T13:52:06.897Z,14.78
2023-04-20T13:57:08.913Z,14.51
2023-04-20T14:02:10.924Z,14.91
2023-04-20T14:07:12.417Z,15.54
2023-04-20T14:12:13.951Z,15.72
2023-04-20T14:17:17.833Z,16.07
2023-04-20T14:22:19.291Z,16.15
2023-04-20T14:27:20.760Z,16.28
2023-04-20T14:32:22.269Z,16.58
2023-04-20T14:37:24.974Z,16.80
2023-04-20T14:42:26.445Z,16.99
2023-04-20T14:47:28.992Z,16.85
2023-04-20T14:52:30.510Z,16.99
2023-04-20T14:57:31.986Z,16.99
2023-04-20T15:02:33.904Z,16.98
2023-04-20T15:07:35.590Z,17.04
2023-04-20T15:12:37.061Z,17.20
2023-04-20T15:17:38.616Z,17.11
2023-04-20T15:22:40.188Z,17.28
2023-04-20T15:27:41.689Z,17.42
2023-04-20T15:32:43.169Z,17.38
2023-04-20T15:37:45.322Z,17.23
2023-04-20T15:42:46.819Z,17.35
2023-04-20T15:47:48.320Z,17.32
2023-04-20T15:52:51.998Z,17.32
2023-04-20T15:57:57.116Z,16.97
2023-04-20T16:03:01.396Z,16.52
2023-04-20T16:08:03.200Z,16.07
2023-04-20T16:13:04.911Z,16.52
2023-04-20T16:18:06.446Z,16.04
2023-04-20T16:23:07.957Z,15.16
2023-04-20T16:28:09.503Z,14.78
2023-04-20T16:33:11.059Z,14.56
2023-04-20T16:38:12.576Z,15.11
2023-04-20T16:43:14.037Z,14.65
2023-04-20T16:48:15.511Z,14.38
2023-04-20T16:53:17.072Z,14.43
2023-04-20T16:58:18.561Z,13.53
2023-04-20T17:03:20.220Z,13.48
2023-04-20T17:08:21.954Z,13.71
2023-04-20T17:13:23.433Z,14.24
2023-04-20T17:18:24.959Z,13.99
2023-04-20T17:23:26.551Z,13.84
2023-04-20T17:28:28.029Z,14.23
2023-04-20T17:33:29.520Z,14.28
2023-04-20T17:38:31.077Z,14.57
2023-04-20T17:43:32.572Z,13.79
2023-04-20T17:48:34.169Z,14.07
2023-04-20T17:53:35.633Z,14.00
2023-04-20T17:58:37.127Z,13.80
2023-04-20T18:03:39.549Z,13.79
2023-04-20T18:08:41.235Z,13.70
2023-04-20T18:13:44.585Z,14.08
2023-04-20T18:18:46.101Z,14.39
2023-04-20T18:23:47.801Z,14.13
2023-04-20T18:28:49.291Z,13.74
2023-04-20T18:33:50.762Z,14.64
2023-04-20T18:38:53.108Z,14.96
2023-04-20T18:43:56.278Z,15.33
2023-04-20T18:48:57.806Z,15.07
2023-04-20T18:53:59.354Z,14.45
2023-04-20T18:59:01.485Z,14.04
2023-04-20T19:04:03.078Z,13.63
2023-04-20T19:09:07.290Z,14.01
2023-04-20T19:14:10.062Z,14.32
2023-04-20T19:19:11.891Z,14.12
2023-04-20T19:24:13.374Z,13.92
2023-04-20T19:29:14.841Z,14.25
2023-04-20T19:34:16.520Z,14.02
2023-04-20T19:39:18.171Z,14.26
2023-04-20T19:44:19.863Z,13.31
2023-04-20T19:49:21.592Z,12.91
2023-04-20T19:54:23.125Z,12.87
2023-04-20T19:59:24.607Z,13.66
2023-04-20T20:04:26.785Z,12.91
2023-04-20T20:09:28.513Z,13.03
2023-04-20T20:14:31.057Z,13.52
2023-04-20T20:19:32.540Z,13.22
2023-04-20T20:24:34.003Z,13.99
2023-04-20T20:29:35.561Z,14.05
2023-04-20T20:34:37.015Z,14.22
2023-04-20T20:39:38.519Z,14.37
2023-04-20T20:44:40.009Z,14.07
2023-04-20T20:49:41.537Z,13.44
2023-04-20T20:54:43.064Z,13.05
2023-04-20T20:59:44.580Z,13.07
2023-04-20T21:04:46.046Z,12.44
2023-04-20T21:09:47.519Z,13.24
2023-04-20T21:14:51.285Z,13.44
2023-04-20T21:19:52.795Z,13.84
2023-04-20T21:24:54.258Z,14.38
2023-04-20T21:29:55.771Z,14.23
2023-04-20T21:34:57.263Z,14.33
2023-04-20T21:39:58.744Z,13.83
2023-04-20T21:45:00.206Z,13.49
2023-04-20T21:50:01.674Z,13.60
2023-04-20T21:55:03.171Z,13.64
2023-04-20T22:00:04.849Z,12.40
2023-04-20T22:05:08.550Z,12.25
2023-04-20T22:10:10.068Z,11.98
2023-04-20T22:15:13.404Z,11.91
2023-04-20T22:20:15.483Z,11.79
2023-04-20T22:25:16.962Z,11.97
2023-04-20T22:30:18.444Z,12.27
2023-04-20T22:35:19.909Z,12.39
2023-04-20T22:40:21.369Z,12.51
2023-04-20T22:45:22.847Z,12.94
2023-04-20T22:50:24.424Z,12.19
2023-04-20T22:55:25.920Z,12.61
2023-04-20T23:00:27.401Z,12.85
2023-04-20T23:05:28.968Z,13.08
2023-04-20T23:10:30.457Z,13.53
2023-04-20T23:15:31.944Z,13.71
2023-04-20T23:20:33.680Z,11.82
2023-04-20T23:25:35.251Z,12.81
2023-04-20T23:30:36.741Z,13.09
2023-04-20T23:35:38.231Z,12.78
2023-04-20T23:40:39.799Z,13.36
2023-04-20T23:45:41.306Z,13.71
2023-04-20T23:50:42.808Z,13.08
2023-04-20T23:55:48.153Z,13.52
